sensor_id;sensor_type;location;lat;lon;timestamp;pressure;altitude;pressure_sealevel;temperature;humidity
37852;BME280;23691;52.486;4.650;2024-02-26T00:01:26;100086.63;;;7.26;79.21
37852;BME280;23691;52.486;4.650;2024-02-26T00:03:51;100089.28;;;7.26;79.25
37852;BME280;23691;52.486;4.650;2024-02-26T00:06:17;100085.63;;;7.36;79.06
37852;BME280;23691;52.486;4.650;2024-02-26T00:08:44;100091.94;;;7.26;79.36
37852;BME280;23691;52.486;4.650;2024-02-26T00:11:09;100096.56;;;7.24;79.13
37852;BME280;23691;52.486;4.650;2024-02-26T00:13:35;100089.56;;;7.23;78.98
37852;BME280;23691;52.486;4.650;2024-02-26T00:16:00;100093.25;;;7.22;78.93
37852;BME280;23691;52.486;4.650;2024-02-26T00:18:26;100107.38;;;7.23;78.84
37852;BME280;23691;52.486;4.650;2024-02-26T00:20:51;100100.22;;;7.23;78.69
37852;BME280;23691;52.486;4.650;2024-02-26T00:23:17;100098.56;;;7.22;78.67
37852;BME280;23691;52.486;4.650;2024-02-26T00:25:43;100098.56;;;7.22;78.42
37852;BME280;23691;52.486;4.650;2024-02-26T00:28:10;100097.91;;;7.28;78.32
37852;BME280;23691;52.486;4.650;2024-02-26T00:30:35;100110.03;;;7.23;78.06
37852;BME280;23691;52.486;4.650;2024-02-26T00:33:01;100113.34;;;7.17;78.22
37852;BME280;23691;52.486;4.650;2024-02-26T00:35:26;100111.84;;;7.14;78.27
37852;BME280;23691;52.486;4.650;2024-02-26T00:37:52;100109.19;;;7.14;78.06
37852;BME280;23691;52.486;4.650;2024-02-26T00:40:17;100107.50;;;7.13;77.90
37852;BME280;23691;52.486;4.650;2024-02-26T00:42:43;100115.47;;;7.13;78.12
37852;BME280;23691;52.486;4.650;2024-02-26T00:45:13;100112.53;;;7.16;77.74
37852;BME280;23691;52.486;4.650;2024-02-26T00:47:38;100113.81;;;7.12;77.75
37852;BME280;23691;52.486;4.650;2024-02-26T00:50:06;100108.19;;;7.15;77.42
37852;BME280;23691;52.486;4.650;2024-02-26T00:52:33;100118.34;;;7.20;76.99
37852;BME280;23691;52.486;4.650;2024-02-26T00:54:59;100110.34;;;7.20;77.14
37852;BME280;23691;52.486;4.650;2024-02-26T00:57:24;100109.34;;;7.21;77.30
37852;BME280;23691;52.486;4.650;2024-02-26T00:59:50;100121.63;;;7.14;77.44
37852;BME280;23691;52.486;4.650;2024-02-26T01:02:15;100112.78;;;7.05;77.63
37852;BME280;23691;52.486;4.650;2024-02-26T01:04:41;100112.44;;;7.00;78.04
37852;BME280;23691;52.486;4.650;2024-02-26T01:07:06;100108.97;;;6.99;78.14
37852;BME280;23691;52.486;4.650;2024-02-26T01:09:31;100113.94;;;7.02;78.14
37852;BME280;23691;52.486;4.650;2024-02-26T01:11:57;100123.22;;;6.98;78.04
37852;BME280;23691;52.486;4.650;2024-02-26T01:14:22;100126.06;;;6.97;78.35
37852;BME280;23691;52.486;4.650;2024-02-26T01:16:48;100125.38;;;6.95;78.22
37852;BME280;23691;52.486;4.650;2024-02-26T01:19:14;100120.38;;;6.92;78.39
37852;BME280;23691;52.486;4.650;2024-02-26T01:21:40;100125.03;;;6.90;78.15
37852;BME280;23691;52.486;4.650;2024-02-26T01:24:06;100128.97;;;6.85;78.36
37852;BME280;23691;52.486;4.650;2024-02-26T01:26:35;100129.66;;;6.87;78.31
37852;BME280;23691;52.486;4.650;2024-02-26T01:29:00;100136.50;;;6.90;78.32
37852;BME280;23691;52.486;4.650;2024-02-26T01:31:25;100141.13;;;6.88;78.64
37852;BME280;23691;52.486;4.650;2024-02-26T01:33:51;100136.81;;;6.87;78.42
37852;BME280;23691;52.486;4.650;2024-02-26T01:36:18;100134.63;;;6.82;78.36
37852;BME280;23691;52.486;4.650;2024-02-26T01:38:44;100138.94;;;6.83;78.58
37852;BME280;23691;52.486;4.650;2024-02-26T01:41:09;100137.09;;;6.84;78.61
37852;BME280;23691;52.486;4.650;2024-02-26T01:43:34;100141.59;;;6.83;78.55
37852;BME280;23691;52.486;4.650;2024-02-26T01:46:00;100143.56;;;6.81;78.44
37852;BME280;23691;52.486;4.650;2024-02-26T01:48:28;100142.91;;;6.79;78.79
37852;BME280;23691;52.486;4.650;2024-02-26T01:50:54;100149.69;;;6.74;78.78
37852;BME280;23691;52.486;4.650;2024-02-26T01:53:20;100147.84;;;6.74;78.42
37852;BME280;23691;52.486;4.650;2024-02-26T01:55:46;100149.53;;;6.75;78.89
37852;BME280;23691;52.486;4.650;2024-02-26T01:58:11;100144.22;;;6.75;78.77
37852;BME280;23691;52.486;4.650;2024-02-26T02:00:38;100146.88;;;6.75;79.32
37852;BME280;23691;52.486;4.650;2024-02-26T02:03:04;100147.84;;;6.74;78.71
37852;BME280;23691;52.486;4.650;2024-02-26T02:05:30;100146.19;;;6.73;78.79
37852;BME280;23691;52.486;4.650;2024-02-26T02:07:56;100137.06;;;6.76;78.68
37852;BME280;23691;52.486;4.650;2024-02-26T02:10:22;100147.69;;;6.76;78.73
37852;BME280;23691;52.486;4.650;2024-02-26T02:12:48;100149.69;;;6.74;78.78
37852;BME280;23691;52.486;4.650;2024-02-26T02:15:14;100149.84;;;6.72;78.76
37852;BME280;23691;52.486;4.650;2024-02-26T02:17:39;100150.00;;;6.71;78.62
37852;BME280;23691;52.486;4.650;2024-02-26T02:20:09;100148.16;;;6.71;78.78
37852;BME280;23691;52.486;4.650;2024-02-26T02:22:35;100156.47;;;6.68;78.72
37852;BME280;23691;52.486;4.650;2024-02-26T02:25:00;100166.28;;;6.68;78.82
37852;BME280;23691;52.486;4.650;2024-02-26T02:27:27;100163.44;;;6.69;78.66
37852;BME280;23691;52.486;4.650;2024-02-26T02:29:52;100168.25;;;6.65;78.75
37852;BME280;23691;52.486;4.650;2024-02-26T02:32:19;100177.03;;;6.66;78.76
37852;BME280;23691;52.486;4.650;2024-02-26T02:34:44;100175.38;;;6.65;78.93
37852;BME280;23691;52.486;4.650;2024-02-26T02:37:10;100180.03;;;6.63;78.71
37852;BME280;23691;52.486;4.650;2024-02-26T02:39:36;100192.31;;;6.64;78.87
37852;BME280;23691;52.486;4.650;2024-02-26T02:42:02;100193.44;;;6.61;78.93
37852;BME280;23691;52.486;4.650;2024-02-26T02:44:27;100199.59;;;6.62;79.10
37852;BME280;23691;52.486;4.650;2024-02-26T02:46:52;100197.44;;;6.57;79.19
37852;BME280;23691;52.486;4.650;2024-02-26T02:49:18;100188.91;;;6.54;79.35
37852;BME280;23691;52.486;4.650;2024-02-26T02:51:44;100206.22;;;6.58;79.34
37852;BME280;23691;52.486;4.650;2024-02-26T02:54:11;100199.41;;;6.55;79.26
37852;BME280;23691;52.486;4.650;2024-02-26T02:56:37;100207.69;;;6.52;79.32
37852;BME280;23691;52.486;4.650;2024-02-26T02:59:05;100203.03;;;6.54;79.18
37852;BME280;23691;52.486;4.650;2024-02-26T03:01:30;100205.88;;;6.53;79.27
37852;BME280;23691;52.486;4.650;2024-02-26T03:03:56;100206.00;;;6.51;79.16
37852;BME280;23691;52.486;4.650;2024-02-26T03:06:21;100210.34;;;6.52;79.25
37852;BME280;23691;52.486;4.650;2024-02-26T03:08:47;100212.00;;;6.53;79.02
37852;BME280;23691;52.486;4.650;2024-02-26T03:11:15;100211.19;;;6.53;79.03
37852;BME280;23691;52.486;4.650;2024-02-26T03:13:41;100220.97;;;6.52;79.01
37852;BME280;23691;52.486;4.650;2024-02-26T03:16:06;100220.28;;;6.50;79.18
37852;BME280;23691;52.486;4.650;2024-02-26T03:18:33;100225.75;;;6.49;79.17
37852;BME280;23691;52.486;4.650;2024-02-26T03:20:58;100227.72;;;6.47;79.42
37852;BME280;23691;52.486;4.650;2024-02-26T03:23:23;100225.75;;;6.49;79.26
37852;BME280;23691;52.486;4.650;2024-02-26T03:25:50;100231.22;;;6.47;79.37
37852;BME280;23691;52.486;4.650;2024-02-26T03:28:17;100231.00;;;6.40;79.97
37852;BME280;23691;52.486;4.650;2024-02-26T03:30:43;100226.84;;;6.38;79.56
37852;BME280;23691;52.486;4.650;2024-02-26T03:33:08;100239.66;;;6.42;79.75
37852;BME280;23691;52.486;4.650;2024-02-26T03:35:34;100237.84;;;6.43;79.55
37852;BME280;23691;52.486;4.650;2024-02-26T03:37:59;100241.63;;;6.40;79.63
37852;BME280;23691;52.486;4.650;2024-02-26T03:40:24;100249.59;;;6.40;79.61
37852;BME280;23691;52.486;4.650;2024-02-26T03:42:50;100247.78;;;6.41;79.76
37852;BME280;23691;52.486;4.650;2024-02-26T03:45:17;100253.09;;;6.41;79.61
37852;BME280;23691;52.486;4.650;2024-02-26T03:47:43;100246.94;;;6.40;79.64
37852;BME280;23691;52.486;4.650;2024-02-26T03:50:09;100245.94;;;6.41;79.31
37852;BME280;23691;52.486;4.650;2024-02-26T03:52:37;100250.56;;;6.39;79.46
37852;BME280;23691;52.486;4.650;2024-02-26T03:55:02;100260.13;;;6.32;79.46
37852;BME280;23691;52.486;4.650;2024-02-26T03:57:28;100253.03;;;6.33;79.83
37852;BME280;23691;52.486;4.650;2024-02-26T03:59:54;100253.69;;;6.35;79.58
37852;BME280;23691;52.486;4.650;2024-02-26T04:02:20;100258.34;;;6.33;79.58
37852;BME280;23691;52.486;4.650;2024-02-26T04:04:46;100268.78;;;6.34;79.57
37852;BME280;23691;52.486;4.650;2024-02-26T04:07:19;100259.84;;;6.35;79.61
37852;BME280;23691;52.486;4.650;2024-02-26T04:09:44;100272.28;;;6.35;79.72
37852;BME280;23691;52.486;4.650;2024-02-26T04:12:10;100271.13;;;6.37;79.64
37852;BME280;23691;52.486;4.650;2024-02-26T04:14:35;100278.28;;;6.37;79.58
37852;BME280;23691;52.486;4.650;2024-02-26T04:17:01;100279.13;;;6.37;79.56
37852;BME280;23691;52.486;4.650;2024-02-26T04:19:26;100280.13;;;6.36;79.66
37852;BME280;23691;52.486;4.650;2024-02-26T04:21:52;100277.44;;;6.36;79.76
37852;BME280;23691;52.486;4.650;2024-02-26T04:24:17;100274.28;;;6.33;80.07
37852;BME280;23691;52.486;4.650;2024-02-26T04:26:43;100282.25;;;6.33;79.80
37852;BME280;23691;52.486;4.650;2024-02-26T04:29:08;100289.22;;;6.34;80.15
37852;BME280;23691;52.486;4.650;2024-02-26T04:31:33;100292.56;;;6.36;80.05
37852;BME280;23691;52.486;4.650;2024-02-26T04:33:59;100295.38;;;6.34;80.24
37852;BME280;23691;52.486;4.650;2024-02-26T04:36:24;100293.72;;;6.33;80.14
37852;BME280;23691;52.486;4.650;2024-02-26T04:38:51;100296.50;;;6.32;80.24
37852;BME280;23691;52.486;4.650;2024-02-26T04:41:16;100294.66;;;6.32;80.44
37852;BME280;23691;52.486;4.650;2024-02-26T04:43:42;100307.97;;;6.32;80.44
37852;BME280;23691;52.486;4.650;2024-02-26T04:46:08;100300.00;;;6.32;80.47
37852;BME280;23691;52.486;4.650;2024-02-26T04:48:34;100308.97;;;6.31;80.41
37852;BME280;23691;52.486;4.650;2024-02-26T04:51:00;100302.81;;;6.31;80.60
37852;BME280;23691;52.486;4.650;2024-02-26T04:53:26;100311.63;;;6.31;80.81
37852;BME280;23691;52.486;4.650;2024-02-26T04:55:51;100315.94;;;6.32;80.67
37852;BME280;23691;52.486;4.650;2024-02-26T04:58:17;100320.28;;;6.33;80.30
37852;BME280;23691;52.486;4.650;2024-02-26T05:00:42;100321.25;;;6.32;80.30
37852;BME280;23691;52.486;4.650;2024-02-26T05:03:07;100326.72;;;6.31;80.37
37852;BME280;23691;52.486;4.650;2024-02-26T05:05:38;100318.59;;;6.32;80.42
37852;BME280;23691;52.486;4.650;2024-02-26T05:08:03;100323.25;;;6.30;80.51
37852;BME280;23691;52.486;4.650;2024-02-26T05:10:29;100326.56;;;6.32;80.60
37852;BME280;23691;52.486;4.650;2024-02-26T05:12:54;100320.41;;;6.32;80.55
37852;BME280;23691;52.486;4.650;2024-02-26T05:15:19;100329.78;;;6.36;80.51
37852;BME280;23691;52.486;4.650;2024-02-26T05:17:45;100323.91;;;6.32;80.57
37852;BME280;23691;52.486;4.650;2024-02-26T05:20:10;100332.03;;;6.31;80.65
37852;BME280;23691;52.486;4.650;2024-02-26T05:22:37;100338.19;;;6.31;80.68
37852;BME280;23691;52.486;4.650;2024-02-26T05:25:03;100342.44;;;6.42;80.10
37852;BME280;23691;52.486;4.650;2024-02-26T05:27:28;100340.34;;;6.45;80.08
37852;BME280;23691;52.486;4.650;2024-02-26T05:29:54;100340.91;;;6.39;79.86
37852;BME280;23691;52.486;4.650;2024-02-26T05:32:19;100342.75;;;6.39;80.07
37852;BME280;23691;52.486;4.650;2024-02-26T05:34:45;100345.53;;;6.37;80.25
37852;BME280;23691;52.486;4.650;2024-02-26T05:37:10;100352.84;;;6.35;80.02
37852;BME280;23691;52.486;4.650;2024-02-26T05:39:36;100361.78;;;6.34;80.21
37852;BME280;23691;52.486;4.650;2024-02-26T05:42:02;100361.34;;;6.39;79.97
37852;BME280;23691;52.486;4.650;2024-02-26T05:44:27;100362.56;;;6.44;79.92
37852;BME280;23691;52.486;4.650;2024-02-26T05:46:53;100363.56;;;6.43;79.64
37852;BME280;23691;52.486;4.650;2024-02-26T05:49:18;100380.50;;;6.42;79.54
37852;BME280;23691;52.486;4.650;2024-02-26T05:51:43;100377.16;;;6.40;79.40
37852;BME280;23691;52.486;4.650;2024-02-26T05:54:09;100392.25;;;6.40;79.11
37852;BME280;23691;52.486;4.650;2024-02-26T05:56:35;100391.00;;;6.34;79.27
37852;BME280;23691;52.486;4.650;2024-02-26T05:59:00;100393.16;;;6.31;79.41
37852;BME280;23691;52.486;4.650;2024-02-26T06:01:26;100394.81;;;6.32;79.37
37852;BME280;23691;52.486;4.650;2024-02-26T06:03:51;100402.47;;;6.35;78.89
37852;BME280;23691;52.486;4.650;2024-02-26T06:06:17;100391.84;;;6.35;78.82
37852;BME280;23691;52.486;4.650;2024-02-26T06:08:43;100409.78;;;6.33;79.05
37852;BME280;23691;52.486;4.650;2024-02-26T06:11:08;100409.91;;;6.31;78.74
37852;BME280;23691;52.486;4.650;2024-02-26T06:13:34;100410.34;;;6.27;78.92
37852;BME280;23691;52.486;4.650;2024-02-26T06:16:03;100400.44;;;6.29;78.78
37852;BME280;23691;52.486;4.650;2024-02-26T06:18:31;100415.66;;;6.27;78.79
37852;BME280;23691;52.486;4.650;2024-02-26T06:20:56;100414.00;;;6.26;78.67
37852;BME280;23691;52.486;4.650;2024-02-26T06:23:22;100426.59;;;6.23;78.76
37852;BME280;23691;52.486;4.650;2024-02-26T06:25:47;100437.91;;;6.26;78.67
37852;BME280;23691;52.486;4.650;2024-02-26T06:28:15;100453.16;;;6.23;78.61
37852;BME280;23691;52.486;4.650;2024-02-26T06:30:40;100435.25;;;6.26;78.73
37852;BME280;23691;52.486;4.650;2024-02-26T06:33:07;100428.44;;;6.23;78.60
37852;BME280;23691;52.486;4.650;2024-02-26T06:35:33;100434.16;;;6.18;78.86
37852;BME280;23691;52.486;4.650;2024-02-26T06:37:58;100442.28;;;6.17;78.76
37852;BME280;23691;52.486;4.650;2024-02-26T06:40:23;100439.47;;;6.18;78.92
37852;BME280;23691;52.486;4.650;2024-02-26T06:43:06;100446.63;;;6.18;78.96
37852;BME280;23691;52.486;4.650;2024-02-26T06:45:32;100456.25;;;6.19;79.07
37852;BME280;23691;52.486;4.650;2024-02-26T06:47:58;100449.94;;;6.20;79.05
37852;BME280;23691;52.486;4.650;2024-02-26T06:50:31;100457.78;;;6.21;78.82
37852;BME280;23691;52.486;4.650;2024-02-26T06:52:56;100463.41;;;6.18;78.93
37852;BME280;23691;52.486;4.650;2024-02-26T06:55:21;100481.78;;;6.30;78.48
37852;BME280;23691;52.486;4.650;2024-02-26T06:57:47;100467.28;;;6.24;78.50
37852;BME280;23691;52.486;4.650;2024-02-26T07:00:13;100479.28;;;6.28;78.24
37852;BME280;23691;52.486;4.650;2024-02-26T07:02:44;100479.28;;;6.28;78.33
37852;BME280;23691;52.486;4.650;2024-02-26T07:05:09;100479.28;;;6.28;78.41
37852;BME280;23691;52.486;4.650;2024-02-26T07:07:35;100487.28;;;6.28;78.26
37852;BME280;23691;52.486;4.650;2024-02-26T07:10:03;100492.16;;;6.33;78.38
37852;BME280;23691;52.486;4.650;2024-02-26T07:12:30;100496.34;;;6.35;78.06
37852;BME280;23691;52.486;4.650;2024-02-26T07:14:59;100492.69;;;6.36;77.91
37852;BME280;23691;52.486;4.650;2024-02-26T07:17:25;100497.16;;;6.36;77.75
37852;BME280;23691;52.486;4.650;2024-02-26T07:19:51;100504.97;;;6.37;77.68
37852;BME280;23691;52.486;4.650;2024-02-26T07:22:19;100505.84;;;6.38;77.55
37852;BME280;23691;52.486;4.650;2024-02-26T07:24:44;100513.53;;;6.31;77.70
37852;BME280;23691;52.486;4.650;2024-02-26T07:27:10;100511.88;;;6.30;77.79
37852;BME280;23691;52.486;4.650;2024-02-26T07:29:35;100529.47;;;6.31;77.60
37852;BME280;23691;52.486;4.650;2024-02-26T07:32:00;100527.34;;;6.35;77.78
37852;BME280;23691;52.486;4.650;2024-02-26T07:34:26;100521.63;;;6.39;77.53
37852;BME280;23691;52.486;4.650;2024-02-26T07:36:54;100521.34;;;6.42;77.50
37852;BME280;23691;52.486;4.650;2024-02-26T07:39:19;100522.72;;;6.47;77.43
37852;BME280;23691;52.486;4.650;2024-02-26T07:41:45;100531.50;;;6.47;77.22
37852;BME280;23691;52.486;4.650;2024-02-26T07:44:13;100524.41;;;6.48;76.97
37852;BME280;23691;52.486;4.650;2024-02-26T07:46:38;100526.91;;;6.49;77.26
37852;BME280;23691;52.486;4.650;2024-02-26T07:49:04;100537.94;;;6.54;76.24
37852;BME280;23691;52.486;4.650;2024-02-26T07:51:29;100538.50;;;6.58;76.65
37852;BME280;23691;52.486;4.650;2024-02-26T07:53:54;100544.78;;;6.57;76.78
37852;BME280;23691;52.486;4.650;2024-02-26T07:56:20;100548.41;;;6.56;77.04
37852;BME280;23691;52.486;4.650;2024-02-26T07:58:48;100554.28;;;6.59;76.46
37852;BME280;23691;52.486;4.650;2024-02-26T08:01:13;100568.44;;;6.60;76.16
37852;BME280;23691;52.486;4.650;2024-02-26T08:03:40;100570.09;;;6.61;75.87
37852;BME280;23691;52.486;4.650;2024-02-26T08:06:05;100564.78;;;6.61;75.79
37852;BME280;23691;52.486;4.650;2024-02-26T08:08:30;100569.09;;;6.62;75.67
37852;BME280;23691;52.486;4.650;2024-02-26T08:10:56;100578.06;;;6.61;75.57
37852;BME280;23691;52.486;4.650;2024-02-26T08:13:21;100577.06;;;6.62;75.59
37852;BME280;23691;52.486;4.650;2024-02-26T08:15:47;100580.59;;;6.62;75.44
37852;BME280;23691;52.486;4.650;2024-02-26T08:18:12;100584.38;;;6.60;75.45
37852;BME280;23691;52.486;4.650;2024-02-26T08:20:37;100587.56;;;6.63;75.33
37852;BME280;23691;52.486;4.650;2024-02-26T08:23:03;100586.72;;;6.63;75.42
37852;BME280;23691;52.486;4.650;2024-02-26T08:25:29;100588.69;;;6.61;75.89
37852;BME280;23691;52.486;4.650;2024-02-26T08:27:54;100576.22;;;6.61;75.64
37852;BME280;23691;52.486;4.650;2024-02-26T08:30:19;100592.47;;;6.58;75.67
37852;BME280;23691;52.486;4.650;2024-02-26T08:32:48;100582.69;;;6.59;75.65
37852;BME280;23691;52.486;4.650;2024-02-26T08:35:14;100593.19;;;6.60;75.78
37852;BME280;23691;52.486;4.650;2024-02-26T08:37:39;100601.00;;;6.62;75.84
37852;BME280;23691;52.486;4.650;2024-02-26T08:40:06;100610.94;;;6.70;75.80
37852;BME280;23691;52.486;4.650;2024-02-26T08:42:31;100596.63;;;6.71;75.70
37852;BME280;23691;52.486;4.650;2024-02-26T08:44:57;100612.72;;;6.69;75.92
37852;BME280;23691;52.486;4.650;2024-02-26T08:47:25;100605.31;;;6.73;76.05
37852;BME280;23691;52.486;4.650;2024-02-26T08:49:50;100617.47;;;6.75;75.56
37852;BME280;23691;52.486;4.650;2024-02-26T08:52:16;100618.72;;;6.81;75.37
37852;BME280;23691;52.486;4.650;2024-02-26T08:54:41;100618.19;;;6.77;75.13
37852;BME280;23691;52.486;4.650;2024-02-26T08:57:07;100613.38;;;6.81;75.15
37852;BME280;23691;52.486;4.650;2024-02-26T08:59:32;100621.06;;;6.84;75.38
37852;BME280;23691;52.486;4.650;2024-02-26T09:01:57;100621.06;;;6.84;75.01
37852;BME280;23691;52.486;4.650;2024-02-26T09:04:23;100629.91;;;6.84;75.24
37852;BME280;23691;52.486;4.650;2024-02-26T09:06:48;100629.75;;;6.86;75.10
37852;BME280;23691;52.486;4.650;2024-02-26T09:09:14;100633.09;;;6.88;75.02
37852;BME280;23691;52.486;4.650;2024-02-26T09:11:39;100621.91;;;6.94;74.68
37852;BME280;23691;52.486;4.650;2024-02-26T09:14:05;100635.59;;;6.99;74.52
37852;BME280;23691;52.486;4.650;2024-02-26T09:16:30;100646.75;;;7.03;74.36
37852;BME280;23691;52.486;4.650;2024-02-26T09:18:56;100642.84;;;7.07;74.05
37852;BME280;23691;52.486;4.650;2024-02-26T09:21:22;100649.25;;;7.14;73.71
37852;BME280;23691;52.486;4.650;2024-02-26T09:23:51;100654.66;;;7.22;73.56
37852;BME280;23691;52.486;4.650;2024-02-26T09:26:16;100654.53;;;7.24;73.66
37852;BME280;23691;52.486;4.650;2024-02-26T09:28:42;100659.53;;;7.27;73.05
37852;BME280;23691;52.486;4.650;2024-02-26T09:31:07;100665.69;;;7.27;72.62
37852;BME280;23691;52.486;4.650;2024-02-26T09:33:33;100672.69;;;7.28;72.45
37852;BME280;23691;52.486;4.650;2024-02-26T09:35:59;100682.91;;;7.33;72.34
37852;BME280;23691;52.486;4.650;2024-02-26T09:38:26;100680.63;;;7.38;72.38
37852;BME280;23691;52.486;4.650;2024-02-26T09:40:51;100688.34;;;7.41;71.87
37852;BME280;23691;52.486;4.650;2024-02-26T09:43:22;100690.84;;;7.43;71.71
37852;BME280;23691;52.486;4.650;2024-02-26T09:45:50;100695.41;;;7.50;71.66
37852;BME280;23691;52.486;4.650;2024-02-26T09:48:17;100690.78;;;7.52;71.51
37852;BME280;23691;52.486;4.650;2024-02-26T09:50:43;100684.72;;;7.60;71.62
37852;BME280;23691;52.486;4.650;2024-02-26T09:53:10;100694.47;;;7.69;70.90
37852;BME280;23691;52.486;4.650;2024-02-26T09:55:36;100700.75;;;7.78;70.44
37852;BME280;23691;52.486;4.650;2024-02-26T09:58:05;100696.63;;;7.84;70.33
37852;BME280;23691;52.486;4.650;2024-02-26T10:00:31;100706.69;;;7.90;69.99
37852;BME280;23691;52.486;4.650;2024-02-26T10:03:03;100714.31;;;8.03;70.14
37852;BME280;23691;52.486;4.650;2024-02-26T10:05:29;100712.44;;;8.13;69.61
37852;BME280;23691;52.486;4.650;2024-02-26T10:07:56;100718.50;;;8.23;69.15
37852;BME280;23691;52.486;4.650;2024-02-26T10:10:23;100721.56;;;8.28;69.16
37852;BME280;23691;52.486;4.650;2024-02-26T10:12:48;100731.84;;;8.41;69.12
37852;BME280;23691;52.486;4.650;2024-02-26T10:15:14;100730.63;;;8.53;69.25
37852;BME280;23691;52.486;4.650;2024-02-26T10:17:39;100730.53;;;8.63;68.75
37852;BME280;23691;52.486;4.650;2024-02-26T10:20:16;100736.16;;;8.78;67.87
37852;BME280;23691;52.486;4.650;2024-02-26T10:22:41;100739.50;;;8.80;67.38
37852;BME280;23691;52.486;4.650;2024-02-26T10:25:07;100742.56;;;8.85;67.14
37852;BME280;23691;52.486;4.650;2024-02-26T10:27:34;100758.47;;;8.95;67.10
37852;BME280;23691;52.486;4.650;2024-02-26T10:30:03;100753.88;;;9.05;67.14
37852;BME280;23691;52.486;4.650;2024-02-26T10:32:29;100756.91;;;9.10;66.36
37852;BME280;23691;52.486;4.650;2024-02-26T10:34:55;100765.75;;;9.11;66.20
37852;BME280;23691;52.486;4.650;2024-02-26T10:37:22;100761.44;;;9.18;66.43
37852;BME280;23691;52.486;4.650;2024-02-26T10:39:48;100770.25;;;9.10;66.02
37852;BME280;23691;52.486;4.650;2024-02-26T10:42:14;100763.38;;;9.08;65.94
37852;BME280;23691;52.486;4.650;2024-02-26T10:44:40;100775.75;;;9.09;66.16
37852;BME280;23691;52.486;4.650;2024-02-26T10:47:07;100770.41;;;9.09;65.69
37852;BME280;23691;52.486;4.650;2024-02-26T10:49:34;100774.06;;;9.08;65.70
37852;BME280;23691;52.486;4.650;2024-02-26T10:52:01;100779.41;;;9.08;65.88
37852;BME280;23691;52.486;4.650;2024-02-26T10:54:27;100783.59;;;9.10;65.60
37852;BME280;23691;52.486;4.650;2024-02-26T10:56:56;100785.97;;;9.13;65.85
37852;BME280;23691;52.486;4.650;2024-02-26T10:59:22;100801.66;;;9.16;65.57
37852;BME280;23691;52.486;4.650;2024-02-26T11:01:48;100801.03;;;9.22;65.88
37852;BME280;23691;52.486;4.650;2024-02-26T11:04:16;100801.69;;;9.24;65.52
37852;BME280;23691;52.486;4.650;2024-02-26T11:06:43;100803.22;;;9.27;65.58
37852;BME280;23691;52.486;4.650;2024-02-26T11:09:11;100813.44;;;9.32;65.45
37852;BME280;23691;52.486;4.650;2024-02-26T11:11:38;100812.94;;;9.28;65.06
37852;BME280;23691;52.486;4.650;2024-02-26T11:14:05;100816.94;;;9.32;64.97
37852;BME280;23691;52.486;4.650;2024-02-26T11:16:32;100819.09;;;9.29;64.35
37852;BME280;23691;52.486;4.650;2024-02-26T11:19:00;100823.75;;;9.27;64.75
37852;BME280;23691;52.486;4.650;2024-02-26T11:21:25;100823.59;;;9.28;64.87
37852;BME280;23691;52.486;4.650;2024-02-26T11:24:14;100839.63;;;9.28;65.00
37852;BME280;23691;52.486;4.650;2024-02-26T11:26:49;100814.91;;;9.26;64.70
37852;BME280;23691;52.486;4.650;2024-02-26T11:29:18;100826.75;;;9.23;64.84
37852;BME280;23691;52.486;4.650;2024-02-26T11:31:45;100826.75;;;9.23;64.64
37852;BME280;23691;52.486;4.650;2024-02-26T11:34:11;100824.06;;;9.23;64.83
37852;BME280;23691;52.486;4.650;2024-02-26T11:36:37;100835.44;;;9.26;64.87
37852;BME280;23691;52.486;4.650;2024-02-26T11:39:04;100851.28;;;9.27;65.02
37852;BME280;23691;52.486;4.650;2024-02-26T11:41:30;100842.94;;;9.30;64.99
37852;BME280;23691;52.486;4.650;2024-02-26T11:44:00;100837.31;;;9.33;64.82
37852;BME280;23691;52.486;4.650;2024-02-26T11:46:30;100851.34;;;9.35;64.95
37852;BME280;23691;52.486;4.650;2024-02-26T11:49:02;100845.00;;;9.36;64.80
37852;BME280;23691;52.486;4.650;2024-02-26T11:51:31;100841.50;;;9.36;64.98
37852;BME280;23691;52.486;4.650;2024-02-26T11:53:57;100839.81;;;9.35;64.20
37852;BME280;23691;52.486;4.650;2024-02-26T11:56:25;100847.69;;;9.36;64.56
37852;BME280;23691;52.486;4.650;2024-02-26T11:58:59;100840.00;;;9.33;64.63
37852;BME280;23691;52.486;4.650;2024-02-26T12:01:47;100845.47;;;9.32;64.53
37852;BME280;23691;52.486;4.650;2024-02-26T12:04:15;100839.78;;;9.27;64.95
37852;BME280;23691;52.486;4.650;2024-02-26T12:06:43;100847.09;;;9.24;65.14
37852;BME280;23691;52.486;4.650;2024-02-26T12:09:09;100843.28;;;9.27;65.44
37852;BME280;23691;52.486;4.650;2024-02-26T12:11:38;100845.78;;;9.29;65.51
37852;BME280;23691;52.486;4.650;2024-02-26T12:14:05;100859.38;;;9.35;65.65
37852;BME280;23691;52.486;4.650;2024-02-26T12:16:39;100857.22;;;9.39;65.20
37852;BME280;23691;52.486;4.650;2024-02-26T12:19:06;100852.69;;;9.39;65.11
37852;BME280;23691;52.486;4.650;2024-02-26T12:21:36;100859.88;;;9.39;64.43
37852;BME280;23691;52.486;4.650;2024-02-26T12:24:14;100860.72;;;9.39;63.97
37852;BME280;23691;52.486;4.650;2024-02-26T12:26:43;100856.69;;;9.35;64.06
37852;BME280;23691;52.486;4.650;2024-02-26T12:29:08;100858.88;;;9.40;64.01
37852;BME280;23691;52.486;4.650;2024-02-26T12:31:37;100871.56;;;9.38;63.97
37852;BME280;23691;52.486;4.650;2024-02-26T12:34:03;100871.25;;;9.41;63.54
37852;BME280;23691;52.486;4.650;2024-02-26T12:36:29;100875.13;;;9.46;63.82
37852;BME280;23691;52.486;4.650;2024-02-26T12:38:55;100877.31;;;9.51;63.26
37852;BME280;23691;52.486;4.650;2024-02-26T12:41:22;100878.69;;;9.55;63.16
37852;BME280;23691;52.486;4.650;2024-02-26T12:43:50;100876.22;;;9.62;63.17
37852;BME280;23691;52.486;4.650;2024-02-26T12:46:15;100891.78;;;9.66;62.97
37852;BME280;23691;52.486;4.650;2024-02-26T12:48:46;100890.63;;;9.69;63.30
37852;BME280;23691;52.486;4.650;2024-02-26T12:51:12;100898.50;;;9.71;62.76
37852;BME280;23691;52.486;4.650;2024-02-26T12:53:39;100892.94;;;9.64;62.20
37852;BME280;23691;52.486;4.650;2024-02-26T12:56:07;100901.59;;;9.58;62.63